createdAt,value
2022-11-15T03:16:45.750Z,10.00
2022-11-15T03:19:35.454Z,10.10
2022-11-15T03:22:22.218Z,10.00
2022-11-15T03:25:08.833Z,9.90
2022-11-15T03:27:55.879Z,9.90
2022-11-15T03:30:42.202Z,10.00
2022-11-15T03:33:28.927Z,10.00
2022-11-15T03:36:15.284Z,10.00
2022-11-15T03:39:02.735Z,10.00
2022-11-15T03:41:50.038Z,10.00
2022-11-15T03:44:38.471Z,10.10
2022-11-15T03:47:27.367Z,10.10
2022-11-15T03:50:14.124Z,10.00
2022-11-15T03:53:00.044Z,10.00
2022-11-15T03:55:45.470Z,10.10
2022-11-15T03:58:30.704Z,10.00
2022-11-15T04:01:15.841Z,10.00
2022-11-15T04:04:00.906Z,10.10
2022-11-15T04:06:46.185Z,10.10
2022-11-15T04:09:31.255Z,10.10
2022-11-15T04:12:31.699Z,10.10
2022-11-15T04:15:18.247Z,10.20
2022-11-15T04:18:03.691Z,10.20
2022-11-15T04:21:07.643Z,10.30
2022-11-15T04:24:08.343Z,10.30
2022-11-15T04:26:53.529Z,10.20
2022-11-15T04:29:38.736Z,10.30
2022-11-15T04:32:23.799Z,10.40
2022-11-15T04:35:09.022Z,10.50
2022-11-15T04:37:54.592Z,10.50
2022-11-15T04:40:39.966Z,10.50
2022-11-15T04:43:25.284Z,10.50
2022-11-15T04:46:10.398Z,10.60
2022-11-15T04:48:58.698Z,10.60
2022-11-15T04:51:44.629Z,10.70
2022-11-15T04:54:29.788Z,10.70
2022-11-15T04:57:14.984Z,10.70
2022-11-15T05:00:00.502Z,10.60
2022-11-15T05:03:04.642Z,10.60
2022-11-15T05:05:50.021Z,10.50
2022-11-15T05:08:35.339Z,10.50
2022-11-15T05:11:21.404Z,10.50
2022-11-15T05:14:06.551Z,10.50
2022-11-15T05:16:51.674Z,10.50
2022-11-15T05:19:36.681Z,10.40
2022-11-15T05:22:21.915Z,10.40
2022-11-15T05:25:07.849Z,10.40
2022-11-15T05:27:53.014Z,10.50
2022-11-15T05:30:38.322Z,10.50
2022-11-15T05:33:24.932Z,10.50
2022-11-15T05:36:28.878Z,10.50
2022-11-15T05:39:14.082Z,10.50
2022-11-15T05:42:06.578Z,10.40
2022-11-15T05:44:52.013Z,10.40
2022-11-15T05:47:38.614Z,10.50
2022-11-15T05:50:24.062Z,10.50
2022-11-15T05:53:10.482Z,10.50
2022-11-15T05:55:55.791Z,10.50
2022-11-15T05:58:40.883Z,10.50
2022-11-15T06:01:26.340Z,10.40
2022-11-15T06:04:11.415Z,10.40
2022-11-15T06:06:56.652Z,10.40
2022-11-15T06:09:42.435Z,10.40
2022-11-15T06:12:27.471Z,10.50
2022-11-15T06:15:12.673Z,10.50
2022-11-15T06:17:58.498Z,10.50
2022-11-15T06:20:43.972Z,10.50
2022-11-15T06:23:29.784Z,10.50
2022-11-15T06:26:15.282Z,10.50
2022-11-15T06:29:00.513Z,10.40
2022-11-15T06:31:45.737Z,10.40
2022-11-15T06:34:30.759Z,10.40
2022-11-15T06:37:15.882Z,10.40
2022-11-15T06:40:01.034Z,10.40
2022-11-15T06:42:46.196Z,10.50
2022-11-15T06:45:31.671Z,10.40
2022-11-15T06:48:17.476Z,10.30
2022-11-15T06:51:04.064Z,10.30
2022-11-15T06:53:49.582Z,10.40
2022-11-15T06:56:34.906Z,10.40
2022-11-15T06:59:19.995Z,10.40
2022-11-15T07:02:05.542Z,10.30
2022-11-15T07:04:50.884Z,10.30
2022-11-15T07:07:36.233Z,10.30
2022-11-15T07:10:22.689Z,10.30
2022-11-15T07:13:08.017Z,10.30
2022-11-15T07:15:53.338Z,10.40
2022-11-15T07:18:39.531Z,10.40
2022-11-15T07:21:27.680Z,10.40
2022-11-15T07:24:12.997Z,10.30
2022-11-15T07:26:58.133Z,10.50
2022-11-15T07:29:43.955Z,10.50
2022-11-15T07:32:29.702Z,10.50
2022-11-15T07:35:14.777Z,10.50
2022-11-15T07:38:01.426Z,10.50
2022-11-15T07:40:47.413Z,10.60
2022-11-15T07:43:34.927Z,10.50
2022-11-15T07:46:20.696Z,10.40
2022-11-15T07:49:05.900Z,10.40
2022-11-15T07:51:51.134Z,10.30
2022-11-15T07:54:36.149Z,10.30
2022-11-15T07:57:21.328Z,10.30
2022-11-15T08:00:06.898Z,10.20
2022-11-15T08:02:52.196Z,10.20
2022-11-15T08:05:38.185Z,10.00
2022-11-15T08:08:23.294Z,9.90
2022-11-15T08:11:08.436Z,9.80
2022-11-15T08:13:53.595Z,9.70
2022-11-15T08:16:38.614Z,9.50
2022-11-15T08:19:23.902Z,9.40
2022-11-15T08:22:08.981Z,9.40
2022-11-15T08:24:54.179Z,9.40
2022-11-15T08:27:39.240Z,9.40
2022-11-15T08:30:25.161Z,9.30
2022-11-15T08:33:11.897Z,9.30
2022-11-15T08:35:57.478Z,9.40
2022-11-15T08:38:42.841Z,9.50
2022-11-15T08:41:31.227Z,9.60
2022-11-15T08:44:16.502Z,9.70
2022-11-15T08:47:01.586Z,9.80
2022-11-15T08:49:46.752Z,10.20
2022-11-15T10:08:23.823Z,13.00
2022-11-15T10:11:04.927Z,13.20
2022-11-15T10:13:42.531Z,13.30
2022-11-15T10:16:20.950Z,13.40
2022-11-15T10:18:47.709Z,13.40
2022-11-15T10:21:14.428Z,13.30
2022-11-15T10:23:41.203Z,13.00
2022-11-15T10:26:11.271Z,12.90
2022-11-15T10:28:37.957Z,13.10
2022-11-15T10:31:21.274Z,13.50
2022-11-15T10:33:48.006Z,13.60
2022-11-15T10:36:14.679Z,13.90
2022-11-15T10:38:50.480Z,14.10
